createdAt,value
2022-08-07T00:01:44.232Z,11.10
2022-08-07T00:04:37.279Z,10.90
2022-08-07T00:07:09.550Z,11.80
2022-08-07T00:09:40.251Z,10.40
2022-08-07T00:12:19.677Z,10.40
2022-08-07T00:14:50.293Z,10.60
2022-08-07T00:17:23.559Z,10.60
2022-08-07T00:20:03.317Z,10.60
2022-08-07T00:22:38.205Z,11.00
2022-08-07T00:25:15.809Z,10.20
2022-08-07T00:27:52.255Z,10.50
2022-08-07T00:30:28.556Z,11.60
2022-08-07T00:32:58.611Z,11.40
2022-08-07T00:35:30.433Z,10.30
2022-08-07T00:38:01.611Z,10.90
2022-08-07T00:40:40.110Z,11.30
2022-08-07T00:44:01.780Z,10.40
2022-08-07T00:46:04.679Z,11.20
2022-08-07T00:48:37.667Z,10.30
2022-08-07T00:51:12.552Z,11.20
2022-08-07T00:53:55.120Z,10.50
2022-08-07T00:56:30.212Z,10.80
2022-08-07T00:59:03.804Z,10.80
2022-08-07T01:01:44.528Z,11.50
2022-08-07T01:04:24.685Z,11.30
2022-08-07T01:06:59.403Z,10.80
2022-08-07T01:10:05.124Z,10.10
2022-08-07T01:12:30.077Z,11.00
2022-08-07T01:15:04.688Z,10.40
2022-08-07T01:17:37.126Z,10.00
2022-08-07T01:20:16.859Z,10.60
2022-08-07T01:23:16.735Z,10.30
2022-08-07T01:26:00.439Z,11.20
2022-08-07T01:28:30.034Z,10.70
2022-08-07T01:31:01.072Z,12.00
2022-08-07T01:33:55.815Z,11.60
2022-08-07T01:39:16.535Z,10.70
2022-08-07T01:42:07.095Z,11.20
2022-08-07T01:44:40.422Z,10.10
2022-08-07T01:47:14.311Z,10.80
2022-08-07T01:50:06.676Z,9.90
2022-08-07T01:52:49.301Z,11.00
2022-08-07T01:55:22.369Z,10.80
2022-08-07T01:58:05.920Z,10.10
2022-08-07T02:01:10.271Z,10.40
2022-08-07T02:03:50.405Z,9.90
2022-08-07T02:06:31.410Z,9.80
2022-08-07T02:09:51.785Z,9.90
2022-08-07T02:12:29.105Z,9.90
2022-08-07T02:15:06.035Z,10.00
2022-08-07T02:17:49.486Z,10.40
2022-08-07T02:20:24.948Z,9.00
2022-08-07T02:23:01.940Z,9.80
2022-08-07T02:26:30.389Z,10.20
2022-08-07T02:28:45.155Z,9.30
2022-08-07T02:31:29.120Z,9.70
2022-08-07T02:34:11.431Z,9.40
2022-08-07T02:36:49.927Z,10.50
2022-08-07T02:39:42.506Z,9.10
2022-08-07T02:42:19.331Z,10.10
2022-08-07T02:44:54.270Z,9.10
2022-08-07T02:47:45.116Z,9.30
2022-08-07T02:50:18.455Z,8.10
2022-08-07T02:53:03.556Z,9.30
2022-08-07T02:56:03.710Z,10.60
2022-08-07T02:58:39.786Z,9.90
2022-08-07T03:01:35.456Z,9.50
2022-08-07T03:04:12.955Z,9.00
2022-08-07T03:06:46.165Z,9.80
2022-08-07T03:09:42.182Z,9.00
2022-08-07T03:12:22.054Z,9.20
2022-08-07T03:14:56.578Z,9.50
2022-08-07T03:17:25.394Z,9.10
2022-08-07T03:19:59.481Z,8.90
2022-08-07T03:22:30.972Z,8.60
2022-08-07T03:25:01.546Z,8.90
2022-08-07T03:27:58.745Z,8.80
2022-08-07T03:30:35.118Z,8.80
2022-08-07T03:33:10.008Z,8.50
2022-08-07T03:35:50.128Z,9.10
2022-08-07T03:38:29.455Z,9.10
2022-08-07T03:41:01.621Z,8.30
2022-08-07T03:43:36.071Z,8.30
2022-08-07T03:46:18.435Z,8.30
2022-08-07T03:49:02.535Z,8.00
2022-08-07T03:51:47.859Z,8.40
2022-08-07T03:54:36.279Z,8.10
2022-08-07T03:58:32.465Z,8.10
2022-08-07T04:00:04.404Z,8.40
2022-08-07T04:02:47.324Z,8.10
2022-08-07T04:05:40.430Z,8.50
2022-08-07T04:08:18.364Z,8.40
2022-08-07T04:10:54.199Z,8.60
2022-08-07T04:14:10.700Z,8.50
2022-08-07T04:16:43.030Z,9.40
2022-08-07T04:19:51.003Z,8.20
2022-08-07T04:22:27.527Z,8.00
2022-08-07T04:25:03.683Z,8.10
2022-08-07T04:27:44.388Z,7.60
2022-08-07T04:30:43.969Z,8.00
2022-08-07T04:33:35.274Z,8.20
2022-08-07T04:36:06.425Z,8.00
2022-08-07T04:38:37.209Z,7.90
2022-08-07T04:41:10.175Z,8.30
2022-08-07T04:44:10.626Z,7.50
2022-08-07T04:47:04.545Z,7.30
2022-08-07T04:50:19.727Z,7.50
2022-08-07T04:53:39.895Z,7.50
2022-08-07T04:58:15.791Z,7.70
2022-08-07T05:00:09.889Z,8.10
2022-08-07T05:02:31.400Z,7.20
2022-08-07T05:05:52.936Z,7.30
2022-08-07T05:08:59.850Z,7.00
2022-08-07T05:11:26.186Z,7.00
2022-08-07T05:14:55.370Z,7.40
2022-08-07T05:17:11.997Z,7.70
2022-08-07T05:19:47.719Z,7.00
2022-08-07T05:22:27.610Z,7.30
2022-08-07T05:25:03.317Z,8.10
2022-08-07T05:30:34.785Z,7.50
2022-08-07T05:33:11.782Z,7.90
2022-08-07T05:35:48.727Z,7.10
2022-08-07T05:39:00.728Z,7.10
2022-08-07T05:41:16.621Z,7.70
2022-08-07T05:44:12.682Z,7.20
2022-08-07T05:46:43.148Z,6.40
2022-08-07T05:49:14.335Z,6.80
2022-08-07T05:51:47.351Z,7.90
2022-08-07T05:54:31.042Z,6.70
2022-08-07T05:57:09.481Z,7.30
2022-08-07T05:59:57.839Z,6.80
2022-08-07T06:02:52.513Z,6.70
2022-08-07T06:05:33.372Z,7.40
2022-08-07T06:08:30.358Z,6.40
2022-08-07T06:11:04.940Z,6.40
2022-08-07T06:14:13.719Z,6.70
2022-08-07T06:16:33.631Z,5.80
2022-08-07T06:19:58.221Z,6.40
2022-08-07T06:22:23.124Z,6.20
2022-08-07T06:25:04.729Z,6.70
2022-08-07T06:28:00.456Z,6.70
2022-08-07T06:30:38.617Z,6.40
2022-08-07T06:33:22.547Z,6.70
2022-08-07T06:36:12.061Z,7.30
2022-08-07T06:38:59.026Z,6.20
2022-08-07T06:41:59.165Z,6.20
2022-08-07T06:44:52.972Z,6.40
2022-08-07T06:47:28.723Z,6.30
2022-08-07T06:50:19.006Z,6.50
2022-08-07T06:52:56.811Z,6.80
2022-08-07T06:56:00.033Z,6.50
2022-08-07T06:58:27.584Z,6.30
2022-08-07T07:01:14.413Z,6.50
2022-08-07T07:03:48.072Z,6.60
2022-08-07T07:06:26.545Z,6.40
2022-08-07T07:09:20.900Z,6.10
2022-08-07T07:12:08.161Z,7.10
2022-08-07T07:15:23.749Z,5.90
2022-08-07T07:18:05.565Z,7.00
2022-08-07T07:20:57.531Z,6.00
2022-08-07T07:24:08.111Z,6.50
2022-08-07T07:26:33.188Z,6.80
2022-08-07T07:29:38.932Z,5.80
2022-08-07T07:32:12.247Z,6.20
2022-08-07T07:34:53.770Z,6.10
2022-08-07T07:37:49.445Z,6.60
2022-08-07T07:40:21.541Z,5.60
2022-08-07T07:43:27.427Z,5.80
2022-08-07T07:46:38.266Z,6.50
2022-08-07T07:50:32.675Z,5.60
2022-08-07T07:52:44.477Z,5.70
2022-08-07T07:55:20.894Z,6.10
2022-08-07T07:57:58.666Z,6.40
2022-08-07T08:00:35.098Z,6.30
2022-08-07T08:03:16.652Z,5.50
2022-08-07T08:05:55.173Z,5.50
2022-08-07T08:08:34.482Z,6.60
2022-08-07T08:11:15.997Z,5.80
2022-08-07T08:14:12.455Z,6.10
2022-08-07T08:17:56.521Z,5.50
2022-08-07T08:20:26.265Z,5.70
2022-08-07T08:23:23.032Z,6.00
2022-08-07T08:26:19.491Z,5.50
2022-08-07T08:28:57.660Z,5.10
2022-08-07T08:31:59.221Z,6.00
2022-08-07T08:34:39.050Z,6.00
2022-08-07T08:37:59.543Z,5.30
2022-08-07T08:40:51.435Z,6.30
2022-08-07T08:43:58.607Z,6.10
2022-08-07T08:46:28.700Z,5.70
2022-08-07T08:49:09.792Z,5.40
2022-08-07T08:52:16.464Z,5.50
2022-08-07T09:02:34.746Z,5.70
2022-08-07T09:05:52.095Z,5.60
2022-08-07T09:11:56.765Z,5.00
2022-08-07T09:18:58.195Z,5.70
2022-08-07T09:25:28.003Z,5.40
2022-08-07T09:30:05.419Z,5.10
2022-08-07T09:31:38.654Z,5.50
2022-08-07T09:34:37.385Z,5.70
2022-08-07T09:37:55.893Z,5.10
2022-08-07T09:41:19.697Z,5.30
2022-08-07T09:47:25.812Z,5.70
2022-08-07T09:48:00.120Z,5.40
2022-08-07T09:52:10.008Z,5.60
2022-08-07T09:54:43.732Z,5.80
2022-08-07T09:57:46.372Z,5.80
2022-08-07T10:00:32.024Z,5.80
2022-08-07T10:04:04.770Z,5.40
2022-08-07T10:06:49.143Z,5.20
2022-08-07T10:10:00.071Z,5.80
2022-08-07T10:13:58.349Z,5.10
2022-08-07T10:16:55.590Z,5.70
2022-08-07T10:19:37.570Z,5.80
2022-08-07T10:22:58.933Z,5.30
2022-08-07T10:26:01.301Z,5.40
2022-08-07T10:28:53.434Z,5.60
2022-08-07T10:31:41.151Z,6.10
2022-08-07T10:34:45.280Z,5.80
2022-08-07T10:38:09.818Z,5.50
2022-08-07T10:41:11.195Z,6.20
2022-08-07T10:44:08.490Z,7.50
2022-08-07T10:46:46.902Z,7.10
2022-08-07T10:49:51.265Z,7.50
2022-08-07T10:52:51.195Z,6.70
2022-08-07T10:55:45.380Z,6.70
2022-08-07T10:58:36.655Z,6.80
2022-08-07T11:01:51.393Z,7.40
2022-08-07T11:04:45.630Z,7.40
2022-08-07T11:07:59.491Z,7.40
2022-08-07T11:10:39.280Z,7.70
2022-08-07T11:14:45.196Z,7.90
2022-08-07T11:16:42.087Z,6.90
2022-08-07T11:19:35.164Z,6.80
2022-08-07T11:22:37.069Z,7.70
2022-08-07T11:25:50.313Z,7.40
2022-08-07T11:28:32.190Z,7.30
2022-08-07T11:31:11.693Z,6.50
2022-08-07T11:34:10.857Z,7.70
2022-08-07T11:37:00.409Z,7.40
2022-08-07T11:44:12.740Z,7.00
2022-08-07T11:51:09.077Z,6.90
2022-08-07T11:54:09.700Z,7.00
2022-08-07T11:57:58.074Z,6.50
2022-08-07T12:00:19.765Z,5.80
2022-08-07T12:03:54.824Z,4.80
2022-08-07T12:06:57.326Z,5.40
2022-08-07T12:09:51.136Z,5.10
2022-08-07T12:12:43.220Z,5.20
2022-08-07T12:16:05.663Z,5.10
2022-08-07T12:18:56.251Z,4.80
2022-08-07T12:22:35.838Z,4.40
2022-08-07T12:25:07.699Z,4.80
2022-08-07T12:28:05.765Z,4.00
2022-08-07T12:34:00.845Z,4.70
2022-08-07T12:36:39.308Z,4.60
2022-08-07T12:39:43.074Z,5.80
2022-08-07T12:42:54.917Z,5.10
2022-08-07T12:45:59.265Z,5.30
2022-08-07T12:49:09.837Z,6.00
2022-08-07T12:55:09.401Z,5.90
2022-08-07T12:58:07.322Z,5.50
2022-08-07T13:01:05.646Z,6.10
2022-08-07T13:04:49.227Z,6.00
2022-08-07T13:08:18.938Z,5.90
2022-08-07T13:14:58.381Z,4.70
2022-08-07T13:18:07.980Z,4.30
2022-08-07T13:20:46.643Z,4.70
2022-08-07T13:24:11.350Z,5.20
2022-08-07T13:27:05.451Z,6.00
2022-08-07T13:30:05.474Z,4.90
2022-08-07T13:34:33.211Z,5.80
2022-08-07T13:36:43.781Z,5.90
2022-08-07T13:39:28.494Z,6.50
2022-08-07T13:42:14.736Z,6.30
2022-08-07T13:46:07.057Z,6.40
2022-08-07T13:51:26.984Z,5.90
2022-08-07T13:54:04.973Z,6.20
2022-08-07T13:56:41.404Z,5.70
2022-08-07T13:59:33.322Z,5.40
2022-08-07T14:05:38.348Z,5.40
2022-08-07T14:08:18.298Z,6.40
2022-08-07T14:11:02.008Z,6.30
2022-08-07T14:13:56.318Z,6.10
2022-08-07T14:16:31.914Z,5.60
2022-08-07T14:20:42.000Z,5.70
2022-08-07T14:22:53.359Z,6.20
2022-08-07T14:25:39.357Z,5.30
2022-08-07T14:28:55.941Z,6.00
2022-08-07T14:31:10.181Z,5.40
2022-08-07T14:33:48.758Z,6.40
2022-08-07T14:36:20.941Z,5.50
2022-08-07T14:38:54.760Z,5.20
2022-08-07T14:41:34.171Z,5.00
2022-08-07T14:47:45.714Z,5.50
2022-08-07T14:53:17.753Z,5.70
2022-08-07T14:56:15.764Z,5.60
2022-08-07T15:00:03.207Z,5.80
2022-08-07T15:05:26.281Z,5.80
2022-08-07T15:07:59.398Z,5.80
2022-08-07T15:10:29.815Z,5.40
2022-08-07T15:13:12.302Z,6.00
2022-08-07T15:18:41.705Z,5.50
2022-08-07T15:25:15.380Z,5.80
2022-08-07T15:31:04.839Z,5.60
2022-08-07T15:33:42.680Z,6.10
2022-08-07T15:37:03.194Z,5.90
2022-08-07T15:39:10.626Z,6.60
2022-08-07T15:42:44.141Z,6.40
2022-08-07T15:45:55.923Z,6.60
2022-08-07T15:48:36.088Z,6.40
2022-08-07T15:55:02.642Z,6.80
2022-08-07T15:57:48.155Z,6.10
2022-08-07T16:00:31.579Z,6.50
2022-08-07T16:03:20.584Z,6.10
2022-08-07T16:05:55.568Z,6.00
2022-08-07T16:08:38.497Z,5.90
2022-08-07T16:11:43.304Z,5.80
2022-08-07T16:14:54.242Z,6.00
2022-08-07T16:22:01.955Z,5.60
2022-08-07T16:25:11.092Z,5.30
2022-08-07T16:28:02.316Z,5.50
2022-08-07T16:30:41.332Z,5.80
2022-08-07T16:34:02.720Z,6.20
2022-08-07T16:36:31.447Z,5.80
2022-08-07T16:39:49.459Z,5.70
2022-08-07T16:44:06.333Z,5.70
2022-08-07T16:47:07.843Z,5.30
2022-08-07T16:50:28.168Z,5.60
2022-08-07T16:54:02.413Z,5.50
2022-08-07T16:56:49.305Z,6.30
2022-08-07T17:00:03.181Z,6.00
2022-08-07T17:07:02.769Z,6.50
2022-08-07T17:10:09.450Z,5.90
2022-08-07T17:13:04.022Z,5.50
2022-08-07T17:16:22.457Z,7.00
2022-08-07T17:20:01.019Z,6.80
2022-08-07T17:22:44.201Z,6.20
2022-08-07T17:25:20.275Z,7.30
2022-08-07T17:28:54.840Z,7.50
2022-08-07T17:32:03.383Z,6.90
2022-08-07T17:35:40.184Z,8.40
2022-08-07T17:38:15.074Z,7.40
2022-08-07T17:42:01.107Z,7.70
2022-08-07T17:44:34.164Z,8.20
2022-08-07T17:47:42.022Z,8.00
2022-08-07T17:50:30.595Z,8.00
2022-08-07T17:54:00.796Z,7.20
2022-08-07T17:56:54.687Z,7.10
2022-08-07T18:00:07.641Z,7.70
2022-08-07T18:03:09.053Z,7.10
2022-08-07T18:06:16.498Z,7.20
2022-08-07T18:09:01.945Z,7.00
2022-08-07T18:12:17.869Z,6.90
2022-08-07T18:15:08.791Z,7.40
2022-08-07T18:18:47.543Z,8.40
2022-08-07T18:21:42.332Z,8.00
2022-08-07T18:24:33.796Z,9.50
2022-08-07T18:31:33.739Z,7.80
2022-08-07T18:34:53.400Z,7.20
2022-08-07T18:41:45.254Z,8.10
2022-08-07T18:48:10.457Z,6.90
2022-08-07T18:52:37.376Z,7.80
2022-08-07T18:54:55.569Z,7.60
2022-08-07T18:57:58.369Z,7.20
2022-08-07T19:00:54.103Z,6.80
2022-08-07T19:03:35.550Z,7.40
2022-08-07T19:06:36.952Z,7.20
2022-08-07T19:09:57.625Z,7.50
2022-08-07T19:12:49.033Z,7.10
2022-08-07T19:16:05.234Z,7.10
2022-08-07T19:19:20.251Z,7.40
2022-08-07T19:26:24.611Z,7.60
2022-08-07T19:28:29.892Z,7.60
2022-08-07T19:31:43.655Z,8.00
2022-08-07T19:34:33.830Z,7.50
2022-08-07T19:37:17.254Z,8.20
2022-08-07T19:40:15.566Z,7.70
2022-08-07T19:42:47.837Z,8.20
2022-08-07T19:46:09.755Z,9.60
2022-08-07T19:48:53.800Z,8.40
2022-08-07T19:51:53.189Z,7.70
2022-08-07T19:54:35.150Z,7.60
2022-08-07T19:58:00.720Z,8.00
2022-08-07T20:00:28.901Z,7.70
2022-08-07T20:03:33.578Z,9.00
2022-08-07T20:06:15.482Z,8.40
2022-08-07T20:09:05.930Z,8.40
2022-08-07T20:12:23.240Z,7.80
2022-08-07T20:14:58.661Z,7.90
2022-08-07T20:17:38.812Z,8.10
2022-08-07T20:20:09.970Z,8.40
2022-08-07T20:22:45.483Z,8.70
2022-08-07T20:25:20.404Z,7.70
2022-08-07T20:27:58.645Z,8.50
2022-08-07T20:30:36.876Z,8.30
2022-08-07T20:33:24.137Z,8.10
2022-08-07T20:36:05.319Z,8.30
2022-08-07T20:38:53.440Z,8.30
2022-08-07T20:41:38.476Z,9.80
2022-08-07T20:44:12.793Z,7.90
2022-08-07T20:46:46.958Z,8.00
2022-08-07T20:49:58.082Z,8.50
2022-08-07T20:52:52.048Z,8.30
2022-08-07T20:55:41.389Z,8.20
2022-08-07T20:58:12.220Z,8.50
2022-08-07T21:00:56.409Z,8.60
2022-08-07T21:03:32.671Z,8.40
2022-08-07T21:09:07.560Z,8.50
2022-08-07T21:11:50.875Z,9.10
2022-08-07T21:14:34.303Z,8.00
2022-08-07T21:18:02.674Z,8.80
2022-08-07T21:20:09.837Z,8.50
2022-08-07T21:22:51.255Z,8.60
2022-08-07T21:25:56.366Z,8.70
2022-08-07T21:28:50.926Z,8.30
2022-08-07T21:31:49.933Z,8.20
2022-08-07T21:34:32.466Z,8.30
2022-08-07T21:37:14.625Z,8.50
2022-08-07T21:40:07.583Z,9.10
2022-08-07T21:42:55.634Z,8.10
2022-08-07T21:46:07.895Z,7.90
2022-08-07T21:48:56.113Z,8.60
2022-08-07T21:51:34.062Z,8.70
2022-08-07T21:54:48.289Z,8.20
2022-08-07T21:57:52.333Z,9.40
2022-08-07T22:00:29.689Z,8.50
2022-08-07T22:03:09.086Z,8.20
2022-08-07T22:05:48.287Z,8.50
2022-08-07T22:08:21.899Z,8.70
2022-08-07T22:11:01.151Z,8.80
2022-08-07T22:13:50.272Z,8.40
2022-08-07T22:16:44.881Z,8.10
2022-08-07T22:19:37.001Z,9.00
2022-08-07T22:22:27.426Z,8.50
2022-08-07T22:25:08.263Z,8.20
2022-08-07T22:28:07.548Z,9.70
2022-08-07T22:31:45.193Z,8.00
2022-08-07T22:34:35.941Z,8.90
2022-08-07T22:37:12.575Z,9.00
2022-08-07T22:40:06.029Z,8.70
2022-08-07T22:42:47.106Z,8.40
2022-08-07T22:46:04.413Z,9.00
2022-08-07T22:49:07.800Z,8.70
2022-08-07T22:51:57.375Z,8.70
2022-08-07T22:55:17.320Z,8.70
2022-08-07T22:58:11.289Z,8.30
2022-08-07T23:00:46.207Z,8.90
2022-08-07T23:03:57.993Z,8.30
2022-08-07T23:06:35.305Z,8.90
2022-08-07T23:10:05.051Z,9.20
2022-08-07T23:12:20.834Z,8.40
2022-08-07T23:16:07.211Z,8.70
2022-08-07T23:19:47.727Z,8.70
2022-08-07T23:22:32.615Z,8.40
2022-08-07T23:25:28.403Z,8.30
2022-08-07T23:28:22.805Z,8.50
2022-08-07T23:32:49.170Z,9.40
2022-08-07T23:34:52.946Z,9.40
2022-08-07T23:38:00.726Z,9.20
2022-08-07T23:40:39.692Z,9.40
2022-08-07T23:43:22.257Z,9.10
2022-08-07T23:46:10.353Z,8.70
2022-08-07T23:48:58.613Z,9.30
2022-08-07T23:53:01.378Z,9.20
2022-08-07T23:54:53.187Z,9.40
2022-08-07T23:57:49.611Z,8.90
